Time;durP1;ratioP1;P1;durP2;ratioP2;P2;SDS_P1;SDS_P2;PMS_P1;PMS_P2;Temp;Humidity;BMP_temperature;BMP_pressure;BME280_temperature;BME280_humidity;BME280_pressure;Samples;Min_cycle;Max_cycle;Signal;HPM_P1;HPM_P2
2023/03/03 05:31:43;;;;;;;34.55;16.73;;;4.50;77.20;;;;;;6123848;23;20250;-75
2023/03/03 05:34:08;;;;;;;41.30;16.63;;;4.50;77.20;;;;;;6099973;23;20010;-78
2023/03/03 05:36:35;;;;;;;38.15;18.90;;;4.50;77.50;;;;;;6103289;23;20084;-75
2023/03/03 05:39:01;;;;;;;45.22;20.58;;;4.50;77.50;;;;;;6129052;23;20002;-78
2023/03/03 05:41:27;;;;;;;29.08;16.90;;;4.50;77.30;;;;;;6129052;23;20006;-76
2023/03/03 05:43:52;;;;;;;33.50;15.90;;;4.50;77.60;;;;;;6129172;23;20002;-74
2023/03/03 05:46:18;;;;;;;35.88;16.55;;;4.50;77.60;;;;;;6128581;23;20006;-76
2023/03/03 05:48:44;;;;;;;33.13;17.02;;;4.50;77.50;;;;;;6103313;23;20081;-76
2023/03/03 05:51:10;;;;;;;40.60;17.00;;;4.40;77.90;;;;;;6103036;23;20006;-82
2023/03/03 05:53:35;;;;;;;37.47;17.60;;;4.40;77.90;;;;;;6128770;23;20773;-83
2023/03/03 05:56:01;;;;;;;36.72;19.20;;;4.50;77.70;;;;;;6129198;23;20029;-80
2023/03/03 05:58:27;;;;;;;38.45;17.30;;;4.50;77.70;;;;;;6102906;23;20451;-79
2023/03/03 06:00:53;;;;;;;39.90;18.38;;;4.40;77.70;;;;;;6127392;23;20061;-79
2023/03/03 06:03:18;;;;;;;41.13;18.45;;;4.40;77.90;;;;;;6127492;23;20455;-78
2023/03/03 06:05:47;;;;;;;38.40;16.90;;;4.40;77.80;;;;;;6129105;23;20002;-76
2023/03/03 06:08:13;;;;;;;39.33;18.95;;;4.50;77.70;;;;;;6128743;23;20408;-76
2023/03/03 06:10:38;;;;;;;39.75;18.80;;;4.50;77.90;;;;;;6103288;23;20129;-75
2023/03/03 06:13:04;;;;;;;38.42;18.27;;;4.50;77.90;;;;;;6128465;23;20705;-75
2023/03/03 06:15:30;;;;;;;37.85;19.60;;;4.50;77.90;;;;;;6128615;23;20005;-75
2023/03/03 06:17:55;;;;;;;39.30;17.23;;;4.40;77.90;;;;;;6128837;23;20399;-76
2023/03/03 06:20:21;;;;;;;47.55;22.83;;;4.40;78.00;;;;;;6129003;23;20141;-76
2023/03/03 06:22:47;;;;;;;41.85;21.15;;;4.40;78.00;;;;;;6129429;23;20002;-73
2023/03/03 06:25:13;;;;;;;38.17;17.70;;;4.40;78.10;;;;;;6129103;23;20006;-72
2023/03/03 06:27:38;;;;;;;55.80;25.08;;;4.30;78.00;;;;;;6128260;23;20020;-73
2023/03/03 06:30:05;;;;;;;58.95;23.35;;;4.30;78.20;;;;;;6128609;23;20006;-72
2023/03/03 06:32:30;;;;;;;52.60;24.02;;;4.20;78.50;;;;;;6126658;23;20100;-72
2023/03/03 06:34:56;;;;;;;42.38;19.85;;;4.20;78.70;;;;;;6129213;23;20010;-74
2023/03/03 06:37:21;;;;;;;38.60;20.80;;;4.20;78.90;;;;;;6128673;23;20005;-74
2023/03/03 06:39:47;;;;;;;63.75;29.75;;;4.20;79.00;;;;;;6127728;23;20057;-74
2023/03/03 06:42:13;;;;;;;43.15;19.90;;;4.20;78.80;;;;;;6128241;23;20379;-74
2023/03/03 06:44:39;;;;;;;56.63;25.42;;;4.20;78.90;;;;;;6128316;23;20495;-75
2023/03/03 06:47:05;;;;;;;46.30;22.45;;;4.20;78.90;;;;;;6127180;23;20029;-74
2023/03/03 06:49:31;;;;;;;44.25;20.65;;;4.20;78.80;;;;;;6127790;23;20045;-76
2023/03/03 06:51:58;;;;;;;51.00;22.98;;;4.20;78.60;;;;;;6128354;23;20006;-74
2023/03/03 06:54:27;;;;;;;46.30;23.52;;;4.20;78.60;;;;;;6126403;23;20006;-75
2023/03/03 06:57:06;;;;;;;66.25;27.70;;;4.20;78.50;;;;;;6128327;23;20025;-74
2023/03/03 06:59:32;;;;;;;59.95;26.67;;;4.20;78.50;;;;;;6127942;23;20045;-74
2023/03/03 07:01:57;;;;;;;63.25;28.02;;;4.20;78.70;;;;;;6126972;23;20006;-74
2023/03/03 07:04:30;;;;;;;55.35;24.92;;;4.20;78.80;;;;;;6126825;23;20009;-75
2023/03/03 07:06:58;;;;;;;56.58;24.67;;;4.20;78.90;;;;;;6126049;23;20416;-75
2023/03/03 07:09:28;;;;;;;48.42;21.90;;;4.20;79.00;;;;;;6120685;23;20032;-74
2023/03/03 07:12:00;;;;;;;53.97;25.05;;;4.20;79.00;;;;;;6121030;23;20017;-75
2023/03/03 07:14:27;;;;;;;53.42;22.77;;;4.30;78.80;;;;;;6126278;23;20353;-75
2023/03/03 07:17:00;;;;;;;54.45;26.10;;;4.30;78.70;;;;;;6128214;23;20010;-75
2023/03/03 07:19:32;;;;;;;53.47;23.40;;;4.30;78.70;;;;;;6128503;23;20615;-75
2023/03/03 07:22:20;;;;;;;40.42;19.38;;;4.30;78.60;;;;;;6127792;23;20013;-76
2023/03/03 07:24:52;;;;;;;60.60;25.17;;;4.50;78.50;;;;;;6107072;23;20454;-75
2023/03/03 07:27:18;;;;;;;47.40;21.90;;;4.50;78.40;;;;;;6128100;23;20010;-75
2023/03/03 07:29:46;;;;;;;56.55;25.05;;;4.60;78.20;;;;;;6128311;23;20747;-75
2023/03/03 07:32:35;;;;;;;48.50;24.08;;;4.70;78.00;;;;;;6129191;23;20013;-77
2023/03/03 07:35:07;;;;;;;43.28;20.95;;;4.80;77.60;;;;;;6127464;23;20002;-76
2023/03/03 07:37:39;;;;;;;49.95;22.70;;;4.90;77.40;;;;;;6130379;23;20181;-76
2023/03/03 07:40:33;;;;;;;47.35;22.52;;;5.10;76.70;;;;;;6129782;23;20014;-76
2023/03/03 07:43:00;;;;;;;48.33;23.63;;;5.50;76.10;;;;;;6130200;23;20085;-76
2023/03/03 07:45:33;;;;;;;51.55;26.17;;;5.90;74.80;;;;;;6129863;23;20084;-76
2023/03/03 07:48:21;;;;;;;54.05;24.55;;;6.30;73.70;;;;;;6130512;23;20006;-76
2023/03/03 07:50:48;;;;;;;58.35;26.00;;;6.80;72.10;;;;;;6129331;23;20339;-76
2023/03/03 07:53:25;;;;;;;47.75;21.38;;;6.90;71.30;;;;;;6130317;23;20077;-76
2023/03/03 07:55:50;;;;;;;52.45;23.77;;;6.80;71.40;;;;;;6130209;23;20009;-76
2023/03/03 07:58:22;;;;;;;50.92;22.08;;;6.80;71.30;;;;;;6129574;23;20009;-76
2023/03/03 08:01:22;;;;;;;51.70;21.73;;;7.00;71.20;;;;;;6103103;23;20029;-75
2023/03/03 08:03:49;;;;;;;50.60;21.75;;;7.40;70.50;;;;;;6129868;23;20013;-76
2023/03/03 08:06:40;;;;;;;44.00;21.48;;;7.70;69.50;;;;;;6129560;23;20085;-75
2023/03/03 08:09:09;;;;;;;47.90;21.70;;;8.20;68.20;;;;;;6129889;23;20391;-76
2023/03/03 08:12:01;;;;;;;47.45;22.17;;;8.50;67.70;;;;;;6129386;23;20006;-76
2023/03/03 08:14:38;;;;;;;53.50;21.05;;;8.50;67.10;;;;;;6073918;23;20033;-76
2023/03/03 08:17:18;;;;;;;50.92;22.45;;;8.70;66.60;;;;;;6103883;23;20435;-75
2023/03/03 08:19:44;;;;;;;46.80;23.08;;;8.80;66.10;;;;;;6103769;23;20006;-76
2023/03/03 08:22:19;;;;;;;49.42;22.73;;;8.70;66.50;;;;;;6129165;23;20026;-76
2023/03/03 08:24:44;;;;;;;57.17;24.73;;;8.60;66.70;;;;;;6129998;23;20006;-76
2023/03/03 08:27:10;;;;;;;51.05;22.95;;;8.40;67.20;;;;;;6130085;23;20026;-75
2023/03/03 08:29:36;;;;;;;53.28;23.10;;;8.20;68.00;;;;;;6129743;23;20013;-76
2023/03/03 08:32:02;;;;;;;53.97;23.15;;;7.80;68.70;;;;;;6121509;23;20073;-75
2023/03/03 08:34:28;;;;;;;57.00;23.83;;;7.70;69.60;;;;;;6129501;23;20002;-75
2023/03/03 08:36:56;;;;;;;61.17;26.40;;;7.50;70.10;;;;;;6129281;23;20138;-76
2023/03/03 08:39:22;;;;;;;53.30;23.00;;;7.60;70.30;;;;;;6129555;23;19998;-76
2023/03/03 08:41:47;;;;;;;52.75;24.73;;;8.10;69.50;;;;;;6129351;23;20016;-76
2023/03/03 08:44:13;;;;;;;52.40;24.48;;;8.70;68.40;;;;;;6129223;23;20063;-76
2023/03/03 08:46:39;;;;;;;49.90;23.98;;;9.30;66.90;;;;;;6129572;23;20077;-76
2023/03/03 08:49:05;;;;;;;55.85;23.42;;;9.80;65.20;;;;;;6129485;23;20021;-76
2023/03/03 08:51:33;;;;;;;45.80;23.42;;;10.30;64.00;;;;;;6129020;23;20005;-76
2023/03/03 08:53:58;;;;;;;50.72;23.73;;;10.70;63.10;;;;;;6129591;23;20097;-76
2023/03/03 08:56:24;;;;;;;44.95;23.48;;;11.10;62.20;;;;;;6129370;23;20061;-75
2023/03/03 08:58:50;;;;;;;42.97;21.73;;;11.60;60.20;;;;;;6127906;23;20006;-79
2023/03/03 09:01:17;;;;;;;50.22;23.15;;;11.80;59.40;;;;;;6127403;23;20012;-78
2023/03/03 09:03:43;;;;;;;49.97;22.88;;;11.90;59.00;;;;;;6128399;23;20343;-78
2023/03/03 09:06:10;;;;;;;50.95;24.85;;;12.00;58.20;;;;;;6129182;23;20110;-79
2023/03/03 09:08:35;;;;;;;41.85;21.73;;;11.90;57.80;;;;;;6128871;23;20038;-78
2023/03/03 09:11:01;;;;;;;51.33;25.50;;;11.40;58.80;;;;;;6129119;23;20002;-78
2023/03/03 09:13:30;;;;;;;50.28;22.92;;;10.90;59.60;;;;;;6129586;23;20009;-78
2023/03/03 09:15:57;;;;;;;52.70;24.95;;;10.60;60.80;;;;;;6128918;23;20006;-78
2023/03/03 09:18:37;;;;;;;49.55;22.40;;;9.90;61.80;;;;;;6129249;23;20017;-78
2023/03/03 09:21:28;;;;;;;54.83;22.73;;;9.30;63.90;;;;;;6128855;23;20009;-77
2023/03/03 09:23:56;;;;;;;44.25;22.40;;;9.20;64.90;;;;;;6129033;23;20002;-79
2023/03/03 09:26:47;;;;;;;44.08;21.98;;;9.30;65.10;;;;;;6129400;23;20024;-78
2023/03/03 09:29:13;;;;;;;49.47;22.08;;;9.30;65.10;;;;;;6129521;23;19998;-78
2023/03/03 09:31:46;;;;;;;43.03;21.52;;;10.20;64.30;;;;;;6128673;23;20517;-78
2023/03/03 09:34:22;;;;;;;45.35;21.65;;;10.40;62.80;;;;;;6128368;23;20056;-78
2023/03/03 09:36:49;;;;;;;42.17;21.20;;;11.00;61.50;;;;;;6129256;23;20053;-77
2023/03/03 09:39:24;;;;;;;41.47;19.95;;;11.20;60.90;;;;;;6128899;23;19998;-78
2023/03/03 09:42:06;;;;;;;46.03;21.95;;;11.30;60.20;;;;;;6128719;23;20101;-78
2023/03/03 09:44:35;;;;;;;44.63;22.40;;;10.90;60.80;;;;;;6128742;23;20029;-78
2023/03/03 09:47:22;;;;;;;41.05;20.02;;;10.80;61.10;;;;;;6128908;23;20323;-78
2023/03/03 09:50:15;;;;;;;44.70;21.85;;;10.80;61.30;;;;;;6128663;23;20005;-78
2023/03/03 09:53:05;;;;;;;40.35;21.40;;;11.30;60.10;;;;;;6102585;23;20005;-78
2023/03/03 09:55:58;;;;;;;43.03;20.05;;;11.10;60.30;;;;;;6129205;23;19997;-78
2023/03/03 09:58:38;;;;;;;47.33;21.70;;;11.00;60.60;;;;;;6129684;23;19998;-78
2023/03/03 10:01:12;;;;;;;47.17;22.50;;;10.90;60.30;;;;;;6128695;23;20012;-78
2023/03/03 10:03:59;;;;;;;48.67;20.38;;;10.70;61.40;;;;;;6128574;23;20001;-78
2023/03/03 10:06:52;;;;;;;40.03;18.95;;;10.50;61.40;;;;;;6127981;23;20002;-78
2023/03/03 10:09:51;;;;;;;45.00;20.20;;;10.30;61.90;;;;;;6128511;23;20002;-78
2023/03/03 10:12:31;;;;;;;40.23;20.40;;;10.30;62.30;;;;;;6128500;23;19998;-78
2023/03/03 10:15:20;;;;;;;37.83;18.08;;;10.30;62.00;;;;;;6128985;23;20002;-78
2023/03/03 10:17:55;;;;;;;40.22;20.27;;;10.40;61.80;;;;;;6058285;23;20459;-78
2023/03/03 10:21:00;;;;;;;33.80;17.88;;;11.00;60.50;;;;;;6128241;23;20451;-78
2023/03/03 10:23:54;;;;;;;41.03;17.38;;;11.30;60.20;;;;;;6128706;23;20328;-78
2023/03/03 10:26:57;;;;;;;39.38;19.20;;;11.20;59.20;;;;;;6128520;23;20776;-78
2023/03/03 10:29:35;;;;;;;39.08;19.58;;;10.90;59.70;;;;;;6128734;23;20005;-78
2023/03/03 10:32:35;;;;;;;35.72;19.55;;;10.50;60.20;;;;;;6127860;23;20064;-77
2023/03/03 10:35:38;;;;;;;34.35;16.95;;;10.50;61.20;;;;;;6128266;23;20029;-78
2023/03/03 10:38:13;;;;;;;32.00;15.48;;;10.50;60.20;;;;;;6128679;23;20006;-78
2023/03/03 10:41:09;;;;;;;34.88;18.67;;;10.50;60.60;;;;;;6128607;23;20005;-78
2023/03/03 10:44:08;;;;;;;30.52;17.13;;;10.50;60.70;;;;;;6127903;23;20215;-79
2023/03/03 10:46:56;;;;;;;30.73;17.15;;;10.60;60.50;;;;;;6128211;23;20013;-78
2023/03/03 10:49:53;;;;;;;30.13;15.05;;;10.50;60.50;;;;;;6128474;23;20001;-78
2023/03/03 10:52:27;;;;;;;35.05;18.42;;;10.60;60.30;;;;;;6128064;23;20014;-78
2023/03/03 10:55:05;;;;;;;36.35;17.58;;;10.50;60.30;;;;;;6128446;23;20324;-78
2023/03/03 10:57:39;;;;;;;34.75;17.38;;;10.50;60.80;;;;;;6128558;23;20076;-78
2023/03/03 11:00:30;;;;;;;34.13;15.73;;;10.60;60.90;;;;;;6130224;23;20034;-78
2023/03/03 11:03:33;;;;;;;26.52;15.32;;;10.70;60.60;;;;;;6132045;23;20033;-77
2023/03/03 11:06:05;;;;;;;31.23;15.05;;;10.80;60.10;;;;;;6131119;23;20478;-77
2023/03/03 11:09:00;;;;;;;28.42;15.60;;;10.80;59.00;;;;;;6131235;23;20474;-77
2023/03/03 11:11:54;;;;;;;29.13;13.95;;;10.80;58.20;;;;;;6131313;23;20006;-77
2023/03/03 11:14:46;;;;;;;35.38;15.40;;;10.70;57.60;;;;;;6131336;23;20009;-77
2023/03/03 11:17:45;;;;;;;28.90;12.60;;;10.70;57.80;;;;;;6131450;23;20077;-77
2023/03/03 11:20:30;;;;;;;27.25;12.98;;;10.70;57.40;;;;;;6130990;23;20002;-77
2023/03/03 11:23:22;;;;;;;26.55;13.07;;;10.70;56.60;;;;;;6132001;23;20002;-77
2023/03/03 11:26:07;;;;;;;22.20;12.93;;;10.60;56.70;;;;;;6131205;23;20462;-76
2023/03/03 11:29:06;;;;;;;23.75;12.63;;;10.60;56.70;;;;;;6131616;23;20009;-77
2023/03/03 11:31:39;;;;;;;22.23;12.75;;;10.70;57.20;;;;;;6131197;23;20018;-77
2023/03/03 11:34:05;;;;;;;27.88;11.73;;;10.80;56.10;;;;;;6131601;23;20037;-77
2023/03/03 11:36:48;;;;;;;26.48;13.20;;;10.80;55.80;;;;;;6130633;23;19998;-77
2023/03/03 11:39:19;;;;;;;28.80;14.43;;;10.80;55.40;;;;;;6132087;23;20423;-77
2023/03/03 11:42:03;;;;;;;31.20;14.98;;;10.80;56.40;;;;;;6131582;23;20009;-77
2023/03/03 11:44:44;;;;;;;31.13;14.55;;;10.90;57.50;;;;;;6131065;23;20430;-77
2023/03/03 11:47:33;;;;;;;27.65;15.18;;;10.90;57.30;;;;;;6131608;23;20032;-77
2023/03/03 11:49:59;;;;;;;27.88;14.57;;;11.00;57.80;;;;;;6131500;23;20592;-77
2023/03/03 11:52:27;;;;;;;28.10;14.70;;;11.10;57.80;;;;;;6130900;23;20006;-77
2023/03/03 11:54:53;;;;;;;28.20;14.18;;;11.10;57.80;;;;;;6131526;23;20485;-77
2023/03/03 11:57:26;;;;;;;27.67;15.23;;;11.00;57.60;;;;;;6131721;23;20002;-77
2023/03/03 12:00:32;;;;;;;24.90;13.82;;;11.10;57.90;;;;;;6131342;23;19998;-77
2023/03/03 12:03:09;;;;;;;25.77;12.88;;;11.20;56.60;;;;;;6131719;23;20061;-77
2023/03/03 12:05:49;;;;;;;28.00;14.80;;;11.30;56.40;;;;;;6131400;23;20009;-77
2023/03/03 12:08:47;;;;;;;27.10;14.55;;;11.30;56.60;;;;;;6131485;23;20005;-77
2023/03/03 12:11:50;;;;;;;31.83;12.80;;;11.40;56.70;;;;;;6104366;23;20009;-77
2023/03/03 12:14:41;;;;;;;27.42;13.95;;;11.30;55.20;;;;;;6130166;23;20043;-81
2023/03/03 12:17:26;;;;;;;26.13;12.88;;;11.30;55.20;;;;;;6113133;23;20002;-80
2023/03/03 12:20:24;;;;;;;22.20;12.52;;;11.30;56.20;;;;;;6129527;23;20025;-79
2023/03/03 12:23:26;;;;;;;23.33;11.40;;;11.30;54.00;;;;;;6131481;23;20029;-86
2023/03/03 12:26:10;;;;;;;21.38;11.73;;;11.40;53.40;;;;;;6072995;23;20015;-84
2023/03/03 12:28:41;;;;;;;25.17;11.77;;;11.50;54.20;;;;;;6130040;23;20074;-84
2023/03/03 12:31:35;;;;;;;23.75;12.57;;;11.50;53.00;;;;;;6110578;23;20112;-86
2023/03/03 12:34:07;;;;;;;22.27;11.63;;;11.60;52.50;;;;;;6128601;23;20009;-84
2023/03/03 12:36:49;;;;;;;27.00;13.38;;;11.60;53.20;;;;;;6128070;23;20006;-84
2023/03/03 12:39:44;;;;;;;26.95;12.63;;;11.60;51.30;;;;;;6129938;23;20069;-85
2023/03/03 12:42:29;;;;;;;24.10;12.90;;;11.70;51.00;;;;;;6129802;23;20013;-81
2023/03/03 12:45:05;;;;;;;22.08;11.50;;;11.60;51.00;;;;;;6129619;23;20490;-86
2023/03/03 12:47:39;;;;;;;20.27;12.23;;;11.70;51.20;;;;;;6129275;23;20443;-86
2023/03/03 12:50:08;;;;;;;18.10;10.98;;;11.80;50.70;;;;;;6127915;23;20010;-87
2023/03/03 12:52:57;;;;;;;20.83;12.20;;;11.80;50.90;;;;;;6129521;23;20028;-87
2023/03/03 12:55:47;;;;;;;22.52;13.20;;;11.80;50.50;;;;;;6111525;23;20006;-87
2023/03/03 12:58:27;;;;;;;21.02;13.18;;;11.80;49.40;;;;;;6129816;23;20029;-86
2023/03/03 13:01:04;;;;;;;20.25;10.27;;;11.80;50.00;;;;;;6129075;23;20006;-87
2023/03/03 13:03:44;;;;;;;21.48;12.10;;;11.80;50.50;;;;;;6128325;23;20005;-87
2023/03/03 13:06:38;;;;;;;23.75;12.13;;;11.80;50.10;;;;;;6129307;23;20010;-87
2023/03/03 13:09:23;;;;;;;21.70;11.55;;;11.80;50.00;;;;;;6128387;23;20438;-87
2023/03/03 13:12:01;;;;;;;23.25;10.88;;;11.90;49.80;;;;;;6129338;23;20006;-86
2023/03/03 13:14:56;;;;;;;20.88;12.00;;;11.90;50.30;;;;;;6129676;23;20002;-87
2023/03/03 13:17:29;;;;;;;20.40;10.98;;;11.90;50.30;;;;;;6128351;23;20037;-87
2023/03/03 13:20:01;;;;;;;26.35;11.43;;;12.00;50.00;;;;;;6129504;23;20079;-88
2023/03/03 13:22:42;;;;;;;20.50;10.75;;;12.00;48.90;;;;;;6127507;23;20522;-88
2023/03/03 13:25:37;;;;;;;24.65;12.90;;;12.00;49.00;;;;;;6128092;23;20059;-87
2023/03/03 13:28:18;;;;;;;18.63;10.85;;;12.00;48.10;;;;;;6129400;23;20002;-83
2023/03/03 13:30:49;;;;;;;21.35;11.40;;;12.00;48.70;;;;;;6128689;23;20021;-86
2023/03/03 13:33:27;;;;;;;23.58;12.23;;;12.00;49.10;;;;;;6103385;23;20002;-86
2023/03/03 13:36:13;;;;;;;16.58;10.73;;;12.00;49.50;;;;;;6129019;23;20513;-85
2023/03/03 13:38:48;;;;;;;23.30;12.93;;;12.10;49.90;;;;;;6129052;23;20001;-83
2023/03/03 13:41:23;;;;;;;23.17;12.30;;;12.20;48.70;;;;;;6128846;23;20068;-83
2023/03/03 13:44:04;;;;;;;22.58;12.27;;;12.10;48.60;;;;;;6127617;23;20010;-83
2023/03/03 13:46:49;;;;;;;22.23;13.55;;;12.20;49.30;;;;;;6127512;23;20085;-83
2023/03/03 13:49:30;;;;;;;22.60;13.38;;;12.30;49.20;;;;;;6128143;23;20405;-85
2023/03/03 13:52:06;;;;;;;25.77;13.63;;;12.30;49.00;;;;;;6127400;23;20328;-83
2023/03/03 13:55:03;;;;;;;22.65;11.63;;;12.30;48.90;;;;;;6128247;23;20005;-84
2023/03/03 13:57:53;;;;;;;20.17;12.82;;;12.30;49.40;;;;;;6102420;23;20423;-83
2023/03/03 14:00:22;;;;;;;28.83;14.20;;;12.30;49.40;;;;;;6101819;23;20010;-84
2023/03/03 14:03:04;;;;;;;25.85;14.80;;;12.30;49.30;;;;;;6101778;23;20010;-83
2023/03/03 14:05:47;;;;;;;25.13;13.20;;;12.30;48.60;;;;;;6128124;23;20032;-84
2023/03/03 14:08:24;;;;;;;23.25;13.93;;;12.30;49.20;;;;;;6127730;23;20025;-84
2023/03/03 14:11:22;;;;;;;22.73;13.25;;;12.30;48.60;;;;;;6127528;23;20013;-84
2023/03/03 14:14:00;;;;;;;21.73;13.02;;;12.40;48.90;;;;;;6127958;23;20001;-85
2023/03/03 14:16:48;;;;;;;26.23;13.77;;;12.30;48.90;;;;;;6127689;23;20009;-85
2023/03/03 14:19:23;;;;;;;25.38;15.07;;;12.40;49.60;;;;;;6127132;23;20070;-83
2023/03/03 14:22:22;;;;;;;27.73;15.13;;;12.50;48.70;;;;;;6128349;23;20009;-83
2023/03/03 14:25:01;;;;;;;20.20;11.15;;;12.40;48.60;;;;;;6102434;23;20434;-89
2023/03/03 14:27:35;;;;;;;19.00;12.52;;;12.50;48.70;;;;;;6129453;23;20357;-83
2023/03/03 14:30:38;;;;;;;25.42;12.88;;;12.40;48.00;;;;;;6093576;23;20013;-85
2023/03/03 14:33:07;;;;;;;22.35;13.10;;;12.50;48.60;;;;;;6128699;23;20065;-88
2023/03/03 14:35:39;;;;;;;22.95;14.38;;;12.40;48.50;;;;;;6102355;23;20426;-89
2023/03/03 14:38:12;;;;;;;22.35;12.95;;;12.40;48.70;;;;;;6102855;23;20005;-84
2023/03/03 14:40:41;;;;;;;23.13;12.30;;;12.40;47.80;;;;;;6101903;23;20010;-85
2023/03/03 14:43:24;;;;;;;23.65;12.63;;;12.40;47.80;;;;;;6127863;23;20025;-87
2023/03/03 14:45:50;;;;;;;23.38;11.75;;;12.50;48.10;;;;;;6101985;23;20543;-85
2023/03/03 14:48:19;;;;;;;20.23;11.35;;;12.50;47.90;;;;;;6128051;23;20035;-84
2023/03/03 14:50:51;;;;;;;17.90;11.73;;;12.40;47.50;;;;;;6128243;23;20089;-84
2023/03/03 14:53:17;;;;;;;20.05;10.77;;;12.40;47.60;;;;;;6102863;23;20006;-82
2023/03/03 14:55:46;;;;;;;17.95;9.35;;;12.50;47.50;;;;;;6128049;23;20383;-83
2023/03/03 14:58:24;;;;;;;19.52;10.10;;;12.50;46.90;;;;;;6128232;23;20442;-85
2023/03/03 15:00:50;;;;;;;16.33;8.98;;;12.50;46.80;;;;;;6102276;23;20010;-82
2023/03/03 15:03:27;;;;;;;14.55;8.38;;;12.50;46.80;;;;;;6128499;23;20060;-85
2023/03/03 15:05:56;;;;;;;12.43;7.45;;;12.50;45.50;;;;;;6103014;23;20045;-83
2023/03/03 15:08:35;;;;;;;14.45;7.63;;;12.50;44.70;;;;;;6101591;23;20013;-85
2023/03/03 15:11:16;;;;;;;15.50;8.25;;;12.50;43.20;;;;;;6127962;23;20013;-86
2023/03/03 15:13:41;;;;;;;;;;;12.50;44.00;;;;;;6128495;23;20026;-88
2023/03/03 15:16:17;;;;;;;15.73;8.20;;;12.40;44.80;;;;;;6128299;23;20278;-84
2023/03/03 15:19:31;;;;;;;12.55;8.02;;;12.40;45.20;;;;;;6127613;23;20077;-83
2023/03/03 15:21:56;;;;;;;16.40;8.25;;;12.50;45.60;;;;;;6123660;23;20058;-80
2023/03/03 15:24:40;;;;;;;12.55;7.22;;;12.40;45.10;;;;;;6126528;23;20439;-80
2023/03/03 15:27:33;;;;;;;12.60;6.18;;;12.50;42.80;;;;;;6120661;23;20709;-81
2023/03/03 15:30:24;;;;;;;12.15;5.25;;;12.40;42.70;;;;;;6119702;23;20013;-79
2023/03/03 15:32:57;;;;;;;;;;;12.40;43.00;;;;;;6121338;23;20014;-77
2023/03/03 15:35:44;;;;;;;13.70;7.20;;;12.40;42.50;;;;;;6098648;23;19908;-77
2023/03/03 15:38:28;;;;;;;12.13;6.30;;;12.40;42.80;;;;;;6099670;23;20002;-76
2023/03/03 15:41:24;;;;;;;13.45;6.03;;;12.40;42.50;;;;;;6125871;23;20010;-78
2023/03/03 15:44:15;;;;;;;13.35;5.13;;;12.40;42.10;;;;;;6126667;23;20006;-77
2023/03/03 15:46:51;;;;;;;10.40;5.18;;;12.30;42.40;;;;;;6127173;23;20010;-77
2023/03/03 15:49:38;;;;;;;11.95;6.28;;;12.30;42.30;;;;;;6128991;23;20060;-76
2023/03/03 15:52:26;;;;;;;9.70;5.55;;;12.30;41.80;;;;;;6101678;23;20092;-77
2023/03/03 15:55:05;;;;;;;12.50;6.70;;;12.30;42.70;;;;;;6128265;23;20081;-77
2023/03/03 15:57:46;;;;;;;9.68;5.35;;;12.30;43.40;;;;;;6118779;23;20090;-78
2023/03/03 16:00:33;;;;;;;8.82;4.75;;;12.30;43.40;;;;;;6126865;23;20002;-79
2023/03/03 16:03:15;;;;;;;8.55;5.38;;;12.30;43.50;;;;;;6121023;23;20443;-78
2023/03/03 16:05:59;;;;;;;10.55;5.75;;;12.20;43.80;;;;;;6126819;23;20029;-78
2023/03/03 16:08:38;;;;;;;10.80;6.07;;;12.20;44.10;;;;;;6127721;23;20033;-79
2023/03/03 16:11:14;;;;;;;14.27;6.25;;;12.20;43.60;;;;;;6125489;23;20001;-79
2023/03/03 16:14:01;;;;;;;9.82;5.13;;;12.20;43.60;;;;;;6127741;23;20012;-78
2023/03/03 16:16:45;;;;;;;8.13;5.00;;;12.00;43.60;;;;;;6125693;23;20013;-78
2023/03/03 16:19:17;;;;;;;9.27;5.18;;;12.10;43.30;;;;;;6126135;23;19997;-76
2023/03/03 16:21:57;;;;;;;9.95;5.30;;;12.10;43.50;;;;;;6127552;23;20013;-78
2023/03/03 16:24:54;;;;;;;9.40;5.95;;;12.00;44.00;;;;;;6127539;23;20010;-76
2023/03/03 16:27:38;;;;;;;11.20;5.63;;;12.00;44.30;;;;;;6126896;23;20002;-78
2023/03/03 16:30:24;;;;;;;10.30;6.38;;;12.00;44.90;;;;;;6126661;23;20044;-78
2023/03/03 16:33:10;;;;;;;12.55;6.53;;;12.00;45.10;;;;;;6126730;23;20021;-75
2023/03/03 16:35:42;;;;;;;10.60;6.07;;;12.00;45.60;;;;;;6128384;23;20058;-77
2023/03/03 16:38:38;;;;;;;8.73;4.95;;;11.90;46.00;;;;;;6127185;23;20057;-78
2023/03/03 16:41:20;;;;;;;9.25;5.90;;;11.80;46.30;;;;;;6123610;23;20010;-78
2023/03/03 16:44:22;;;;;;;11.38;6.78;;;11.80;46.70;;;;;;6126885;23;20018;-78
2023/03/03 16:47:11;;;;;;;10.50;5.15;;;11.80;46.90;;;;;;6096072;23;20010;-89
2023/03/03 16:49:44;;;;;;;10.70;5.38;;;11.70;47.20;;;;;;6126290;23;20014;-86
2023/03/03 16:52:16;;;;;;;8.95;5.65;;;11.70;47.80;;;;;;6126367;23;20060;-84
2023/03/03 16:54:56;;;;;;;10.77;5.72;;;11.60;48.50;;;;;;6127519;23;20856;-83
2023/03/03 16:57:52;;;;;;;10.95;5.20;;;11.60;48.70;;;;;;6126381;23;20013;-82
2023/03/03 17:00:28;;;;;;;11.80;5.78;;;11.50;49.00;;;;;;6126829;23;20844;-82
2023/03/03 17:02:57;;;;;;;9.65;5.40;;;11.40;49.40;;;;;;6126024;23;20047;-82
2023/03/03 17:05:51;;;;;;;8.88;4.70;;;11.30;49.30;;;;;;6126623;23;20367;-82
2023/03/03 17:08:42;;;;;;;6.63;4.15;;;11.30;49.70;;;;;;6114260;23;20002;-82
2023/03/03 17:11:18;;;;;;;;;;;11.30;50.00;;;;;;6126707;23;20002;-85
2023/03/03 17:13:59;;;;;;;5.97;3.08;;;11.20;50.80;;;;;;6127827;23;19904;-84
2023/03/03 17:16:47;;;;;;;7.18;4.53;;;11.20;51.80;;;;;;6127742;23;20002;-84
2023/03/03 17:19:48;;;;;;;11.88;3.78;;;11.10;53.20;;;;;;6104052;23;20002;-83
2023/03/03 17:22:25;;;;;;;7.45;4.35;;;11.00;54.10;;;;;;6127345;23;20002;-84
2023/03/03 17:24:56;;;;;;;8.07;4.65;;;10.90;54.90;;;;;;6100639;23;20076;-84
2023/03/03 17:27:49;;;;;;;9.52;4.15;;;10.80;55.60;;;;;;6102003;23;20358;-83
2023/03/03 17:30:32;;;;;;;6.05;4.05;;;10.70;56.00;;;;;;6100570;23;20010;-85
2023/03/03 17:33:07;;;;;;;7.32;4.18;;;10.60;56.30;;;;;;6125444;23;20013;-80
2023/03/03 17:36:01;;;;;;;14.23;6.68;;;10.50;56.90;;;;;;6101471;23;20895;-87
2023/03/03 17:38:51;;;;;;;22.10;7.43;;;10.50;57.70;;;;;;6102769;23;20766;-83
2023/03/03 17:41:23;;;;;;;17.77;9.27;;;10.30;58.20;;;;;;6127434;23;20407;-83
2023/03/03 17:44:16;;;;;;;15.30;8.73;;;10.30;58.80;;;;;;6128173;23;20435;-83
2023/03/03 17:46:52;;;;;;;12.57;5.90;;;10.30;58.90;;;;;;6101944;23;20010;-83
2023/03/03 17:49:58;;;;;;;7.35;5.13;;;10.20;59.10;;;;;;6127801;23;20006;-83
2023/03/03 17:52:48;;;;;;;11.55;5.35;;;10.20;59.10;;;;;;6127862;23;20017;-83
2023/03/03 17:55:32;;;;;;;7.78;4.07;;;10.00;59.50;;;;;;6126907;23;19998;-83
2023/03/03 17:58:33;;;;;;;11.50;5.03;;;9.90;59.40;;;;;;6127737;23;20029;-83
2023/03/03 18:01:24;;;;;;;8.02;4.13;;;9.90;59.70;;;;;;5981265;23;20056;-84
2023/03/03 18:04:05;;;;;;;10.68;5.05;;;9.80;59.70;;;;;;6072375;23;20072;-84
2023/03/03 18:06:57;;;;;;;8.35;4.75;;;9.80;59.90;;;;;;6127682;23;20438;-80
2023/03/03 18:09:22;;;;;;;8.20;4.70;;;9.80;59.80;;;;;;6126974;23;20033;-81
2023/03/03 18:12:00;;;;;;;9.00;4.45;;;9.70;59.70;;;;;;6127857;23;20009;-89
2023/03/03 18:14:39;;;;;;;6.90;4.15;;;9.70;60.00;;;;;;6128641;23;20002;-81
2023/03/03 18:17:11;;;;;;;7.65;4.70;;;9.60;60.10;;;;;;6127247;23;20505;-84
2023/03/03 18:19:55;;;;;;;8.15;4.72;;;9.50;60.20;;;;;;6102195;23;20010;-84
2023/03/03 18:22:37;;;;;;;8.77;5.20;;;9.60;60.30;;;;;;6128638;23;20010;-78
2023/03/03 18:25:13;;;;;;;9.30;4.78;;;9.50;60.20;;;;;;6126736;23;20437;-84
2023/03/03 18:27:46;;;;;;;10.00;4.68;;;9.40;60.20;;;;;;6128111;23;20002;-82
2023/03/03 18:30:23;;;;;;;10.95;4.85;;;9.30;60.20;;;;;;6101209;23;20006;-85
2023/03/03 18:32:55;;;;;;;7.75;3.95;;;9.30;60.30;;;;;;6127695;23;20081;-83
2023/03/03 18:35:29;;;;;;;4.93;3.60;;;9.30;60.40;;;;;;6102003;23;20006;-84
2023/03/03 18:37:56;;;;;;;8.68;4.60;;;9.30;60.30;;;;;;6102348;23;20017;-79
2023/03/03 18:40:32;;;;;;;5.72;4.00;;;9.20;60.40;;;;;;6127684;23;20006;-78
2023/03/03 18:42:58;;;;;;;5.75;4.00;;;9.20;60.30;;;;;;6101975;23;20012;-77
2023/03/03 18:45:25;;;;;;;5.20;4.18;;;9.20;60.10;;;;;;6128507;23;20580;-79
2023/03/03 18:48:00;;;;;;;5.72;4.03;;;9.20;60.10;;;;;;6127305;23;20335;-85
2023/03/03 18:50:34;;;;;;;5.82;4.32;;;9.10;60.20;;;;;;6127838;23;20006;-84
2023/03/03 18:53:17;;;;;;;6.20;3.97;;;9.10;60.20;;;;;;6127821;23;20365;-83
2023/03/03 18:55:44;;;;;;;6.90;3.78;;;8.90;60.40;;;;;;6126684;23;20100;-78
2023/03/03 18:58:13;;;;;;;10.63;5.32;;;8.90;60.70;;;;;;6102772;23;20002;-78
2023/03/03 19:00:47;;;;;;;7.38;4.03;;;8.90;60.80;;;;;;6102730;23;20009;-79
2023/03/03 19:03:44;;;;;;;6.88;4.03;;;8.90;60.90;;;;;;6127342;23;20034;-77